sensor_id;sensor_type;location;lat;lon;timestamp;pressure;altitude;pressure_sealevel;temperature;humidity
3844;BME280;1937;51.444;6.484;2024-01-25T00:02:05;68333.06;;;9.07;87.13
3844;BME280;1937;51.444;6.484;2024-01-25T00:04:32;68277.41;;;8.98;87.33
3844;BME280;1937;51.444;6.484;2024-01-25T00:06:58;68302.66;;;9.02;87.16
3844;BME280;1937;51.444;6.484;2024-01-25T00:09:26;68312.09;;;9.11;87.42
3844;BME280;1937;51.444;6.484;2024-01-25T00:11:53;68279.34;;;9.04;87.24
3844;BME280;1937;51.444;6.484;2024-01-25T00:14:20;68289.66;;;8.98;87.56
3844;BME280;1937;51.444;6.484;2024-01-25T00:16:46;68331.50;;;9.03;87.57
3844;BME280;1937;51.444;6.484;2024-01-25T00:19:13;68270.78;;;8.88;88.38
3844;BME280;1937;51.444;6.484;2024-01-25T00:21:41;68342.44;;;8.90;87.80
3844;BME280;1937;51.444;6.484;2024-01-25T00:24:10;68273.22;;;8.77;88.21
3844;BME280;1937;51.444;6.484;2024-01-25T00:26:38;68275.59;;;8.73;88.35
3844;BME280;1937;51.444;6.484;2024-01-25T00:29:05;68248.41;;;8.69;88.55
3844;BME280;1937;51.444;6.484;2024-01-25T00:31:32;68268.94;;;8.69;88.65
3844;BME280;1937;51.444;6.484;2024-01-25T00:33:59;68256.88;;;8.68;88.94
3844;BME280;1937;51.444;6.484;2024-01-25T00:36:27;68261.81;;;8.70;89.13
3844;BME280;1937;51.444;6.484;2024-01-25T00:38:54;68256.31;;;8.67;88.49
3844;BME280;1937;51.444;6.484;2024-01-25T00:41:21;68262.44;;;8.63;88.75
3844;BME280;1937;51.444;6.484;2024-01-25T00:43:50;68236.72;;;8.46;88.96
3844;BME280;1937;51.444;6.484;2024-01-25T00:46:17;68232.38;;;8.44;88.94
3844;BME280;1937;51.444;6.484;2024-01-25T00:48:44;68209.19;;;8.27;89.46
3844;BME280;1937;51.444;6.484;2024-01-25T00:51:15;68230.72;;;8.23;89.92
3844;BME280;1937;51.444;6.484;2024-01-25T00:53:42;68218.09;;;8.21;89.43
3844;BME280;1937;51.444;6.484;2024-01-25T00:56:11;68240.81;;;8.18;90.00
3844;BME280;1937;51.444;6.484;2024-01-25T00:58:38;68235.09;;;8.18;89.42
3844;BME280;1937;51.444;6.484;2024-01-25T01:01:07;68198.28;;;8.02;90.74
3844;BME280;1937;51.444;6.484;2024-01-25T01:03:35;68245.56;;;8.09;90.87
3844;BME280;1937;51.444;6.484;2024-01-25T01:06:03;68212.94;;;7.90;91.36
3844;BME280;1937;51.444;6.484;2024-01-25T01:08:30;68200.50;;;7.93;90.63
3844;BME280;1937;51.444;6.484;2024-01-25T01:10:57;68299.78;;;7.61;91.02
3844;BME280;1937;51.444;6.484;2024-01-25T01:13:24;68205.16;;;7.66;92.63
3844;BME280;1937;51.444;6.484;2024-01-25T01:15:50;68321.28;;;7.58;91.98
3844;BME280;1937;51.444;6.484;2024-01-25T01:18:18;68252.47;;;7.67;92.44
3844;BME280;1937;51.444;6.484;2024-01-25T01:20:45;68182.41;;;7.44;93.05
3844;BME280;1937;51.444;6.484;2024-01-25T01:23:12;68245.81;;;7.57;92.71
3844;BME280;1937;51.444;6.484;2024-01-25T01:25:40;68331.19;;;7.42;93.16
3844;BME280;1937;51.444;6.484;2024-01-25T01:28:06;68289.84;;;7.20;94.09
3844;BME280;1937;51.444;6.484;2024-01-25T01:30:33;68236.69;;;7.20;94.50
3844;BME280;1937;51.444;6.484;2024-01-25T01:33:00;68279.00;;;7.26;94.42
3844;BME280;1937;51.444;6.484;2024-01-25T01:35:28;68330.03;;;7.15;94.17
3844;BME280;1937;51.444;6.484;2024-01-25T01:37:55;68307.78;;;7.20;94.86
3844;BME280;1937;51.444;6.484;2024-01-25T01:40:21;68333.59;;;6.72;95.00
3844;BME280;1937;51.444;6.484;2024-01-25T01:42:48;68314.31;;;7.06;95.74
3844;BME280;1937;51.444;6.484;2024-01-25T01:45:15;68404.09;;;7.04;94.81
3844;BME280;1937;51.444;6.484;2024-01-25T01:47:41;68358.00;;;7.30;94.77
3844;BME280;1937;51.444;6.484;2024-01-25T01:50:09;68310.75;;;7.16;94.95
3844;BME280;1937;51.444;6.484;2024-01-25T01:52:37;68381.66;;;7.24;94.77
3844;BME280;1937;51.444;6.484;2024-01-25T01:55:06;68418.47;;;7.20;95.17
3844;BME280;1937;51.444;6.484;2024-01-25T01:57:33;68486.63;;;7.30;94.29
3844;BME280;1937;51.444;6.484;2024-01-25T02:00:03;68409.78;;;7.30;94.65
3844;BME280;1937;51.444;6.484;2024-01-25T02:02:30;68378.09;;;7.27;94.18
3844;BME280;1937;51.444;6.484;2024-01-25T02:04:57;68387.34;;;7.24;93.50
3844;BME280;1937;51.444;6.484;2024-01-25T02:07:23;68434.63;;;7.32;93.51
3844;BME280;1937;51.444;6.484;2024-01-25T02:09:51;68321.00;;;7.03;94.18
3844;BME280;1937;51.444;6.484;2024-01-25T02:12:18;68404.09;;;7.17;94.19
3844;BME280;1937;51.444;6.484;2024-01-25T02:14:45;68394.03;;;7.21;94.30
3844;BME280;1937;51.444;6.484;2024-01-25T02:17:12;68402.13;;;6.97;95.10
3844;BME280;1937;51.444;6.484;2024-01-25T02:19:41;68493.28;;;6.88;94.73
3844;BME280;1937;51.444;6.484;2024-01-25T02:22:08;68409.81;;;7.04;94.70
3844;BME280;1937;51.444;6.484;2024-01-25T02:24:36;68459.63;;;7.12;95.08
3844;BME280;1937;51.444;6.484;2024-01-25T02:27:03;68478.94;;;7.11;94.68
3844;BME280;1937;51.444;6.484;2024-01-25T02:29:30;68433.78;;;6.74;95.03
3844;BME280;1937;51.444;6.484;2024-01-25T02:31:57;68424.97;;;6.99;95.10
3844;BME280;1937;51.444;6.484;2024-01-25T02:34:24;68409.97;;;6.95;95.67
3844;BME280;1937;51.444;6.484;2024-01-25T02:36:50;68379.88;;;6.76;95.87
3844;BME280;1937;51.444;6.484;2024-01-25T02:39:17;68496.84;;;7.04;94.83
3844;BME280;1937;51.444;6.484;2024-01-25T02:41:45;68478.91;;;6.97;94.80
3844;BME280;1937;51.444;6.484;2024-01-25T02:44:13;68455.47;;;6.88;94.51
3844;BME280;1937;51.444;6.484;2024-01-25T02:46:40;68448.38;;;6.76;95.55
3844;BME280;1937;51.444;6.484;2024-01-25T02:49:06;68476.91;;;6.78;95.27
3844;BME280;1937;51.444;6.484;2024-01-25T02:51:33;68446.59;;;6.74;95.46
3844;BME280;1937;51.444;6.484;2024-01-25T02:54:00;68368.63;;;6.40;96.91
3844;BME280;1937;51.444;6.484;2024-01-25T02:56:26;68402.66;;;6.45;97.10
3844;BME280;1937;51.444;6.484;2024-01-25T02:59:00;68514.44;;;6.60;97.20
3844;BME280;1937;51.444;6.484;2024-01-25T03:01:26;68582.13;;;6.61;98.06
3844;BME280;1937;51.444;6.484;2024-01-25T03:03:54;68573.25;;;6.53;97.57
3844;BME280;1937;51.444;6.484;2024-01-25T03:06:20;68511.22;;;6.40;97.82
3844;BME280;1937;51.444;6.484;2024-01-25T03:08:47;68630.56;;;6.63;97.02
3844;BME280;1937;51.444;6.484;2024-01-25T03:11:14;68572.69;;;6.60;96.85
3844;BME280;1937;51.444;6.484;2024-01-25T03:13:41;68571.38;;;6.32;96.84
3844;BME280;1937;51.444;6.484;2024-01-25T03:16:09;68563.81;;;6.52;97.02
3844;BME280;1937;51.444;6.484;2024-01-25T03:18:36;68526.34;;;6.29;97.34
3844;BME280;1937;51.444;6.484;2024-01-25T03:21:03;68560.56;;;6.32;98.02
3844;BME280;1937;51.444;6.484;2024-01-25T03:23:29;68577.91;;;6.38;97.79
3844;BME280;1937;51.444;6.484;2024-01-25T03:25:56;68585.50;;;6.25;97.44
3844;BME280;1937;51.444;6.484;2024-01-25T03:28:23;68593.22;;;6.31;97.80
3844;BME280;1937;51.444;6.484;2024-01-25T03:30:49;68733.28;;;6.37;97.56
3844;BME280;1937;51.444;6.484;2024-01-25T03:33:18;68630.16;;;6.26;98.39
3844;BME280;1937;51.444;6.484;2024-01-25T03:35:44;68636.78;;;6.16;98.05
3844;BME280;1937;51.444;6.484;2024-01-25T03:38:11;68622.81;;;6.15;98.63
3844;BME280;1937;51.444;6.484;2024-01-25T03:40:39;68669.06;;;6.20;98.35
3844;BME280;1937;51.444;6.484;2024-01-25T03:43:06;68630.78;;;5.98;97.96
3844;BME280;1937;51.444;6.484;2024-01-25T03:45:32;68704.03;;;6.14;98.07
3844;BME280;1937;51.444;6.484;2024-01-25T03:47:59;68692.66;;;6.20;97.58
3844;BME280;1937;51.444;6.484;2024-01-25T03:50:27;68679.22;;;6.13;97.83
3844;BME280;1937;51.444;6.484;2024-01-25T03:52:54;68614.03;;;5.92;98.15
3844;BME280;1937;51.444;6.484;2024-01-25T03:55:21;68689.66;;;5.89;98.56
3844;BME280;1937;51.444;6.484;2024-01-25T03:57:47;68734.34;;;5.97;98.51
3844;BME280;1937;51.444;6.484;2024-01-25T04:00:15;68691.31;;;5.77;99.07
3844;BME280;1937;51.444;6.484;2024-01-25T04:02:41;68735.19;;;6.02;99.08
3844;BME280;1937;51.444;6.484;2024-01-25T04:05:08;68751.13;;;6.02;98.56
3844;BME280;1937;51.444;6.484;2024-01-25T04:07:36;68749.53;;;5.99;98.63
3844;BME280;1937;51.444;6.484;2024-01-25T04:10:04;68704.94;;;6.04;98.02
3844;BME280;1937;51.444;6.484;2024-01-25T04:12:31;68737.69;;;5.95;98.45
3844;BME280;1937;51.444;6.484;2024-01-25T04:14:58;68754.94;;;5.88;98.99
3844;BME280;1937;51.444;6.484;2024-01-25T04:17:25;68790.53;;;5.90;99.44
3844;BME280;1937;51.444;6.484;2024-01-25T04:19:52;68710.88;;;5.66;98.99
3844;BME280;1937;51.444;6.484;2024-01-25T04:22:19;68764.28;;;5.61;99.48
3844;BME280;1937;51.444;6.484;2024-01-25T04:24:47;68746.75;;;5.57;99.59
3844;BME280;1937;51.444;6.484;2024-01-25T04:27:14;68756.22;;;5.59;99.31
3844;BME280;1937;51.444;6.484;2024-01-25T04:29:42;68793.56;;;5.62;99.15
3844;BME280;1937;51.444;6.484;2024-01-25T04:32:09;68824.66;;;5.65;99.92
3844;BME280;1937;51.444;6.484;2024-01-25T04:34:36;68803.53;;;5.58;99.96
3844;BME280;1937;51.444;6.484;2024-01-25T04:37:03;68843.47;;;5.61;99.82
3844;BME280;1937;51.444;6.484;2024-01-25T04:39:30;68860.81;;;5.67;99.77
3844;BME280;1937;51.444;6.484;2024-01-25T04:41:58;68826.28;;;5.53;99.19
3844;BME280;1937;51.444;6.484;2024-01-25T04:44:25;68817.69;;;5.57;99.93
3844;BME280;1937;51.444;6.484;2024-01-25T04:46:52;68833.13;;;5.33;100.00
3844;BME280;1937;51.444;6.484;2024-01-25T04:49:19;68803.13;;;5.18;100.00
3844;BME280;1937;51.444;6.484;2024-01-25T04:51:46;68867.78;;;5.23;100.00
3844;BME280;1937;51.444;6.484;2024-01-25T04:54:13;68824.56;;;5.06;100.00
3844;BME280;1937;51.444;6.484;2024-01-25T04:56:40;68786.28;;;4.91;100.00
3844;BME280;1937;51.444;6.484;2024-01-25T04:59:08;68937.09;;;5.11;100.00
3844;BME280;1937;51.444;6.484;2024-01-25T05:01:35;68973.59;;;5.09;100.00
3844;BME280;1937;51.444;6.484;2024-01-25T05:04:02;68949.63;;;5.06;100.00
3844;BME280;1937;51.444;6.484;2024-01-25T05:06:29;68980.59;;;5.17;100.00
3844;BME280;1937;51.444;6.484;2024-01-25T05:08:56;68966.88;;;5.06;100.00
3844;BME280;1937;51.444;6.484;2024-01-25T05:11:22;68987.06;;;5.16;100.00
3844;BME280;1937;51.444;6.484;2024-01-25T05:13:49;68965.34;;;5.09;100.00
3844;BME280;1937;51.444;6.484;2024-01-25T05:16:17;68933.25;;;4.88;100.00
3844;BME280;1937;51.444;6.484;2024-01-25T05:18:44;68913.56;;;4.56;100.00
3844;BME280;1937;51.444;6.484;2024-01-25T05:21:11;68972.50;;;4.76;100.00
3844;BME280;1937;51.444;6.484;2024-01-25T05:23:37;68961.72;;;4.75;100.00
3844;BME280;1937;51.444;6.484;2024-01-25T05:26:05;68941.47;;;4.73;100.00
3844;BME280;1937;51.444;6.484;2024-01-25T05:28:32;68937.81;;;4.64;100.00
3844;BME280;1937;51.444;6.484;2024-01-25T05:30:59;68936.16;;;4.60;100.00
3844;BME280;1937;51.444;6.484;2024-01-25T05:33:27;69008.88;;;4.68;100.00
3844;BME280;1937;51.444;6.484;2024-01-25T05:35:53;68987.50;;;4.56;100.00
3844;BME280;1937;51.444;6.484;2024-01-25T05:38:20;68998.28;;;4.57;100.00
3844;BME280;1937;51.444;6.484;2024-01-25T05:40:47;68961.38;;;4.40;100.00
3844;BME280;1937;51.444;6.484;2024-01-25T05:43:13;68978.59;;;4.40;100.00
3844;BME280;1937;51.444;6.484;2024-01-25T05:45:40;68985.66;;;4.39;100.00
3844;BME280;1937;51.444;6.484;2024-01-25T05:48:07;68933.88;;;4.26;100.00
3844;BME280;1937;51.444;6.484;2024-01-25T05:50:35;69001.06;;;4.22;100.00
3844;BME280;1937;51.444;6.484;2024-01-25T05:53:02;68993.78;;;4.33;100.00
3844;BME280;1937;51.444;6.484;2024-01-25T05:55:29;69061.88;;;4.35;100.00
3844;BME280;1937;51.444;6.484;2024-01-25T05:57:55;69052.16;;;4.29;100.00
3844;BME280;1937;51.444;6.484;2024-01-25T06:00:22;69042.22;;;4.33;100.00
3844;BME280;1937;51.444;6.484;2024-01-25T06:02:49;69065.75;;;4.34;100.00
3844;BME280;1937;51.444;6.484;2024-01-25T06:05:15;69100.69;;;4.35;100.00
3844;BME280;1937;51.444;6.484;2024-01-25T06:07:44;69307.47;;;4.40;100.00
3844;BME280;1937;51.444;6.484;2024-01-25T06:10:11;69142.66;;;4.36;100.00
3844;BME280;1937;51.444;6.484;2024-01-25T06:12:38;69156.94;;;4.25;100.00
3844;BME280;1937;51.444;6.484;2024-01-25T06:15:06;69220.66;;;4.33;100.00
3844;BME280;1937;51.444;6.484;2024-01-25T06:17:34;69205.50;;;4.31;100.00
3844;BME280;1937;51.444;6.484;2024-01-25T06:20:00;69179.94;;;4.07;100.00
3844;BME280;1937;51.444;6.484;2024-01-25T06:22:27;69132.44;;;4.04;100.00
3844;BME280;1937;51.444;6.484;2024-01-25T06:24:55;69213.50;;;4.10;100.00
3844;BME280;1937;51.444;6.484;2024-01-25T06:27:22;69246.34;;;4.05;100.00
3844;BME280;1937;51.444;6.484;2024-01-25T06:29:49;69220.25;;;4.13;100.00
3844;BME280;1937;51.444;6.484;2024-01-25T06:32:15;69205.88;;;4.10;100.00
3844;BME280;1937;51.444;6.484;2024-01-25T06:34:42;69103.13;;;3.88;100.00
3844;BME280;1937;51.444;6.484;2024-01-25T06:37:09;69231.94;;;4.02;100.00
3844;BME280;1937;51.444;6.484;2024-01-25T06:39:37;69191.97;;;3.92;100.00
3844;BME280;1937;51.444;6.484;2024-01-25T06:42:05;69282.16;;;4.12;100.00
3844;BME280;1937;51.444;6.484;2024-01-25T06:44:32;69232.69;;;4.09;100.00
3844;BME280;1937;51.444;6.484;2024-01-25T06:46:59;69228.06;;;4.03;100.00
3844;BME280;1937;51.444;6.484;2024-01-25T06:49:25;69186.41;;;3.89;100.00
3844;BME280;1937;51.444;6.484;2024-01-25T06:51:52;69141.38;;;3.70;100.00
3844;BME280;1937;51.444;6.484;2024-01-25T06:54:18;69235.41;;;3.72;100.00
3844;BME280;1937;51.444;6.484;2024-01-25T06:56:45;69253.09;;;3.75;100.00
3844;BME280;1937;51.444;6.484;2024-01-25T06:59:13;69252.78;;;3.79;100.00
3844;BME280;1937;51.444;6.484;2024-01-25T07:01:39;69275.56;;;3.89;100.00
3844;BME280;1937;51.444;6.484;2024-01-25T07:04:06;69322.31;;;3.86;100.00
3844;BME280;1937;51.444;6.484;2024-01-25T07:06:32;69373.56;;;3.90;100.00
3844;BME280;1937;51.444;6.484;2024-01-25T07:08:59;69364.88;;;3.96;100.00
3844;BME280;1937;51.444;6.484;2024-01-25T07:11:26;69597.50;;;3.94;100.00
3844;BME280;1937;51.444;6.484;2024-01-25T07:13:52;69402.06;;;4.01;100.00
3844;BME280;1937;51.444;6.484;2024-01-25T07:16:20;69601.41;;;4.02;100.00
3844;BME280;1937;51.444;6.484;2024-01-25T07:18:49;69524.69;;;4.06;100.00
3844;BME280;1937;51.444;6.484;2024-01-25T07:21:16;69490.19;;;4.07;100.00
3844;BME280;1937;51.444;6.484;2024-01-25T07:23:43;69571.19;;;4.15;100.00
3844;BME280;1937;51.444;6.484;2024-01-25T07:26:16;69568.09;;;4.23;100.00
3844;BME280;1937;51.444;6.484;2024-01-25T07:28:43;69672.91;;;4.28;100.00
3844;BME280;1937;51.444;6.484;2024-01-25T07:31:10;69803.44;;;4.20;100.00
3844;BME280;1937;51.444;6.484;2024-01-25T07:33:38;69856.78;;;4.13;100.00
3844;BME280;1937;51.444;6.484;2024-01-25T07:36:05;69883.50;;;4.33;100.00
3844;BME280;1937;51.444;6.484;2024-01-25T07:38:32;69926.38;;;4.50;100.00
3844;BME280;1937;51.444;6.484;2024-01-25T07:40:59;69960.41;;;4.46;100.00
3844;BME280;1937;51.444;6.484;2024-01-25T07:43:25;69898.59;;;4.46;100.00
3844;BME280;1937;51.444;6.484;2024-01-25T07:45:52;69884.72;;;4.34;100.00
3844;BME280;1937;51.444;6.484;2024-01-25T07:48:19;69991.63;;;4.47;100.00
3844;BME280;1937;51.444;6.484;2024-01-25T07:50:47;70047.97;;;4.53;100.00
3844;BME280;1937;51.444;6.484;2024-01-25T07:53:15;70123.72;;;4.55;100.00
3844;BME280;1937;51.444;6.484;2024-01-25T07:55:44;70296.59;;;4.65;100.00
3844;BME280;1937;51.444;6.484;2024-01-25T07:58:11;70266.34;;;4.80;100.00
3844;BME280;1937;51.444;6.484;2024-01-25T08:00:38;70274.00;;;4.80;100.00
3844;BME280;1937;51.444;6.484;2024-01-25T08:03:05;70395.28;;;4.90;100.00
3844;BME280;1937;51.444;6.484;2024-01-25T08:05:32;70416.13;;;4.71;100.00
3844;BME280;1937;51.444;6.484;2024-01-25T08:08:00;70479.00;;;4.87;100.00
3844;BME280;1937;51.444;6.484;2024-01-25T08:10:26;70678.22;;;5.09;100.00
3844;BME280;1937;51.444;6.484;2024-01-25T08:12:53;70856.31;;;5.21;100.00
3844;BME280;1937;51.444;6.484;2024-01-25T08:15:22;70754.44;;;5.27;100.00
3844;BME280;1937;51.444;6.484;2024-01-25T08:17:50;70847.81;;;5.37;100.00
3844;BME280;1937;51.444;6.484;2024-01-25T08:20:17;70867.50;;;5.51;100.00
3844;BME280;1937;51.444;6.484;2024-01-25T08:22:43;70871.38;;;5.50;100.00
3844;BME280;1937;51.444;6.484;2024-01-25T08:25:12;70925.66;;;5.51;100.00
3844;BME280;1937;51.444;6.484;2024-01-25T08:27:39;71021.75;;;5.71;100.00
3844;BME280;1937;51.444;6.484;2024-01-25T08:30:06;71076.34;;;5.78;100.00
3844;BME280;1937;51.444;6.484;2024-01-25T08:32:33;71045.19;;;5.88;100.00
3844;BME280;1937;51.444;6.484;2024-01-25T08:35:01;71057.44;;;5.86;100.00
3844;BME280;1937;51.444;6.484;2024-01-25T08:37:27;70987.69;;;5.87;100.00
3844;BME280;1937;51.444;6.484;2024-01-25T08:39:54;71104.81;;;5.97;100.00
3844;BME280;1937;51.444;6.484;2024-01-25T08:42:22;70914.41;;;6.07;100.00
3844;BME280;1937;51.444;6.484;2024-01-25T08:44:49;70994.22;;;6.09;100.00
3844;BME280;1937;51.444;6.484;2024-01-25T08:47:17;70976.06;;;6.26;100.00
3844;BME280;1937;51.444;6.484;2024-01-25T08:49:44;70787.69;;;6.21;100.00
3844;BME280;1937;51.444;6.484;2024-01-25T08:52:11;70858.50;;;6.24;100.00
3844;BME280;1937;51.444;6.484;2024-01-25T08:54:37;70733.84;;;6.23;100.00
3844;BME280;1937;51.444;6.484;2024-01-25T08:57:04;70924.69;;;6.30;100.00
3844;BME280;1937;51.444;6.484;2024-01-25T08:59:34;70921.78;;;6.36;100.00
3844;BME280;1937;51.444;6.484;2024-01-25T09:02:03;70915.72;;;6.42;100.00
3844;BME280;1937;51.444;6.484;2024-01-25T09:04:30;70914.28;;;6.45;100.00
3844;BME280;1937;51.444;6.484;2024-01-25T09:06:57;70835.28;;;6.39;100.00
3844;BME280;1937;51.444;6.484;2024-01-25T09:09:24;70820.59;;;6.27;100.00
3844;BME280;1937;51.444;6.484;2024-01-25T09:11:51;70822.69;;;6.58;100.00
3844;BME280;1937;51.444;6.484;2024-01-25T09:14:19;70751.22;;;6.54;100.00
3844;BME280;1937;51.444;6.484;2024-01-25T09:16:47;70778.94;;;6.62;100.00
3844;BME280;1937;51.444;6.484;2024-01-25T09:19:14;70920.06;;;6.79;100.00
3844;BME280;1937;51.444;6.484;2024-01-25T09:21:40;70868.66;;;6.94;100.00
3844;BME280;1937;51.444;6.484;2024-01-25T09:24:07;70753.94;;;6.63;100.00
3844;BME280;1937;51.444;6.484;2024-01-25T09:26:34;70720.47;;;6.98;99.25
3844;BME280;1937;51.444;6.484;2024-01-25T09:29:04;70629.59;;;7.08;98.85
3844;BME280;1937;51.444;6.484;2024-01-25T09:31:31;70658.00;;;7.25;98.74
3844;BME280;1937;51.444;6.484;2024-01-25T09:33:59;70495.25;;;7.26;98.33
3844;BME280;1937;51.444;6.484;2024-01-25T09:36:25;70419.25;;;7.23;97.92
3844;BME280;1937;51.444;6.484;2024-01-25T09:38:52;70440.97;;;7.24;97.85
3844;BME280;1937;51.444;6.484;2024-01-25T09:41:19;70371.03;;;7.25;97.79
3844;BME280;1937;51.444;6.484;2024-01-25T09:43:46;70383.09;;;7.27;97.51
3844;BME280;1937;51.444;6.484;2024-01-25T09:46:13;70430.63;;;7.64;96.63
3844;BME280;1937;51.444;6.484;2024-01-25T09:48:42;70195.56;;;7.71;95.67
3844;BME280;1937;51.444;6.484;2024-01-25T09:51:12;70260.16;;;7.82;96.02
3844;BME280;1937;51.444;6.484;2024-01-25T09:53:40;70319.59;;;8.13;95.38
3844;BME280;1937;51.444;6.484;2024-01-25T09:56:10;70036.03;;;7.88;94.14
3844;BME280;1937;51.444;6.484;2024-01-25T09:58:38;69880.16;;;8.06;93.62
3844;BME280;1937;51.444;6.484;2024-01-25T10:01:08;69930.84;;;8.14;94.20
3844;BME280;1937;51.444;6.484;2024-01-25T10:03:35;69937.03;;;8.17;93.29
3844;BME280;1937;51.444;6.484;2024-01-25T10:06:02;69970.69;;;8.56;93.00
3844;BME280;1937;51.444;6.484;2024-01-25T10:08:31;69868.09;;;8.71;91.95
3844;BME280;1937;51.444;6.484;2024-01-25T10:11:01;69849.84;;;8.99;90.65
3844;BME280;1937;51.444;6.484;2024-01-25T10:13:27;69539.50;;;8.47;90.88
3844;BME280;1937;51.444;6.484;2024-01-25T10:15:55;69741.03;;;9.02;90.41
3844;BME280;1937;51.444;6.484;2024-01-25T10:18:22;69530.22;;;8.89;90.17
3844;BME280;1937;51.444;6.484;2024-01-25T10:20:49;69511.19;;;9.01;89.07
3844;BME280;1937;51.444;6.484;2024-01-25T10:23:16;69567.63;;;9.10;89.84
3844;BME280;1937;51.444;6.484;2024-01-25T10:25:44;69540.63;;;9.33;88.51
3844;BME280;1937;51.444;6.484;2024-01-25T10:28:12;69574.75;;;9.40;88.78
3844;BME280;1937;51.444;6.484;2024-01-25T10:30:38;69650.66;;;9.84;87.74
3844;BME280;1937;51.444;6.484;2024-01-25T10:33:06;69476.84;;;9.57;88.38
3844;BME280;1937;51.444;6.484;2024-01-25T10:35:33;69370.13;;;9.65;87.00
3844;BME280;1937;51.444;6.484;2024-01-25T10:38:00;69488.38;;;9.80;86.70
3844;BME280;1937;51.444;6.484;2024-01-25T10:40:29;69227.84;;;9.53;85.59
3844;BME280;1937;51.444;6.484;2024-01-25T10:42:57;69137.19;;;9.74;85.17
3844;BME280;1937;51.444;6.484;2024-01-25T10:45:34;69123.91;;;9.37;86.19
3844;BME280;1937;51.444;6.484;2024-01-25T10:48:04;69188.31;;;9.28;87.77
3844;BME280;1937;51.444;6.484;2024-01-25T10:50:31;69168.94;;;9.58;86.10
3844;BME280;1937;51.444;6.484;2024-01-25T10:52:58;69082.75;;;8.89;87.44
3844;BME280;1937;51.444;6.484;2024-01-25T10:55:26;69176.44;;;9.25;87.91
3844;BME280;1937;51.444;6.484;2024-01-25T10:57:54;69141.00;;;9.12;87.99
3844;BME280;1937;51.444;6.484;2024-01-25T11:00:22;69142.84;;;9.62;86.31
3844;BME280;1937;51.444;6.484;2024-01-25T11:02:51;69026.31;;;9.50;85.56
3844;BME280;1937;51.444;6.484;2024-01-25T11:05:41;69098.38;;;9.63;85.76
3844;BME280;1937;51.444;6.484;2024-01-25T11:08:17;69208.09;;;9.58;86.20
3844;BME280;1937;51.444;6.484;2024-01-25T11:10:49;69164.75;;;9.89;85.87
3844;BME280;1937;51.444;6.484;2024-01-25T11:13:23;69057.00;;;9.59;86.14
3844;BME280;1937;51.444;6.484;2024-01-25T11:15:56;69164.44;;;10.06;85.32
3844;BME280;1937;51.444;6.484;2024-01-25T11:18:25;69015.22;;;10.06;84.07
3844;BME280;1937;51.444;6.484;2024-01-25T11:20:53;68966.53;;;10.04;84.12
3844;BME280;1937;51.444;6.484;2024-01-25T11:23:19;68917.25;;;9.95;83.76
3844;BME280;1937;51.444;6.484;2024-01-25T11:25:47;69134.38;;;10.11;84.44
3844;BME280;1937;51.444;6.484;2024-01-25T11:28:14;68995.41;;;10.05;83.70
3844;BME280;1937;51.444;6.484;2024-01-25T11:30:42;68880.03;;;9.81;84.39
3844;BME280;1937;51.444;6.484;2024-01-25T11:33:11;68806.06;;;9.55;84.03
3844;BME280;1937;51.444;6.484;2024-01-25T11:35:41;68880.63;;;9.68;84.80
3844;BME280;1937;51.444;6.484;2024-01-25T11:38:08;68947.13;;;9.92;84.64
3844;BME280;1937;51.444;6.484;2024-01-25T11:40:35;68816.16;;;9.77;84.41
3844;BME280;1937;51.444;6.484;2024-01-25T11:43:04;68962.97;;;10.01;85.02
3844;BME280;1937;51.444;6.484;2024-01-25T11:45:36;68940.41;;;9.95;84.34
3844;BME280;1937;51.444;6.484;2024-01-25T11:48:19;68892.50;;;9.85;85.14
3844;BME280;1937;51.444;6.484;2024-01-25T11:50:49;68808.81;;;9.86;84.24
3844;BME280;1937;51.444;6.484;2024-01-25T11:53:18;68929.09;;;9.79;83.43
3844;BME280;1937;51.444;6.484;2024-01-25T11:55:45;68767.50;;;9.68;83.91
3844;BME280;1937;51.444;6.484;2024-01-25T11:58:12;68783.69;;;9.73;84.44
3844;BME280;1937;51.444;6.484;2024-01-25T12:00:39;68604.47;;;9.28;85.21
3844;BME280;1937;51.444;6.484;2024-01-25T12:03:06;68779.97;;;9.33;86.77
3844;BME280;1937;51.444;6.484;2024-01-25T12:05:34;68786.28;;;9.27;85.66
3844;BME280;1937;51.444;6.484;2024-01-25T12:08:01;68757.25;;;9.35;85.80
3844;BME280;1937;51.444;6.484;2024-01-25T12:10:28;68704.28;;;9.19;85.50
3844;BME280;1937;51.444;6.484;2024-01-25T12:12:55;68711.19;;;9.14;86.79
3844;BME280;1937;51.444;6.484;2024-01-25T12:15:22;68684.53;;;8.84;87.79
3844;BME280;1937;51.444;6.484;2024-01-25T12:17:50;68731.75;;;8.94;88.16
3844;BME280;1937;51.444;6.484;2024-01-25T12:20:17;68740.41;;;8.84;88.22
3844;BME280;1937;51.444;6.484;2024-01-25T12:22:48;68836.88;;;9.16;87.42
3844;BME280;1937;51.444;6.484;2024-01-25T12:25:15;68834.13;;;9.18;87.40
3844;BME280;1937;51.444;6.484;2024-01-25T12:27:41;68903.34;;;9.53;86.27
3844;BME280;1937;51.444;6.484;2024-01-25T12:30:14;68921.56;;;9.70;85.98
3844;BME280;1937;51.444;6.484;2024-01-25T12:32:41;68867.56;;;9.64;85.63
3844;BME280;1937;51.444;6.484;2024-01-25T12:35:08;68842.47;;;9.77;84.31
3844;BME280;1937;51.444;6.484;2024-01-25T12:37:36;68739.41;;;9.66;84.14
3844;BME280;1937;51.444;6.484;2024-01-25T12:40:05;68664.94;;;9.27;85.57
3844;BME280;1937;51.444;6.484;2024-01-25T12:42:32;68897.59;;;9.39;85.57
3844;BME280;1937;51.444;6.484;2024-01-25T12:44:59;68859.28;;;9.76;85.21
3844;BME280;1937;51.444;6.484;2024-01-25T12:47:26;68833.16;;;9.74;85.57
3844;BME280;1937;51.444;6.484;2024-01-25T12:49:52;68869.16;;;9.87;85.56
3844;BME280;1937;51.444;6.484;2024-01-25T12:52:20;68882.03;;;9.87;84.44
3844;BME280;1937;51.444;6.484;2024-01-25T12:54:46;68824.06;;;9.75;84.14
3844;BME280;1937;51.444;6.484;2024-01-25T12:57:15;68871.72;;;9.61;85.08
3844;BME280;1937;51.444;6.484;2024-01-25T12:59:42;68722.06;;;9.40;85.42
3844;BME280;1937;51.444;6.484;2024-01-25T13:02:36;68771.06;;;9.45;85.83
3844;BME280;1937;51.444;6.484;2024-01-25T13:05:04;68779.97;;;9.53;85.21
3844;BME280;1937;51.444;6.484;2024-01-25T13:07:34;68654.63;;;9.40;84.81
3844;BME280;1937;51.444;6.484;2024-01-25T13:10:01;68595.94;;;9.36;85.31
3844;BME280;1937;51.444;6.484;2024-01-25T13:12:36;68587.97;;;8.87;86.91
3844;BME280;1937;51.444;6.484;2024-01-25T13:15:04;68619.00;;;8.66;88.35
3844;BME280;1937;51.444;6.484;2024-01-25T13:17:31;68656.69;;;8.74;88.55
3844;BME280;1937;51.444;6.484;2024-01-25T13:19:59;68805.44;;;9.09;88.51
3844;BME280;1937;51.444;6.484;2024-01-25T13:22:27;68815.75;;;9.35;87.47
3844;BME280;1937;51.444;6.484;2024-01-25T13:25:14;68878.22;;;9.47;86.29
3844;BME280;1937;51.444;6.484;2024-01-25T13:27:43;68782.53;;;9.39;85.64
3844;BME280;1937;51.444;6.484;2024-01-25T13:30:24;68842.63;;;9.56;86.39
3844;BME280;1937;51.444;6.484;2024-01-25T13:32:51;68727.00;;;9.10;88.07